Time;durP1;ratioP1;P1;durP2;ratioP2;P2;SDS_P1;SDS_P2;PMS_P1;PMS_P2;Temp;Humidity;BMP_temperature;BMP_pressure;BME280_temperature;BME280_humidity;BME280_pressure;Samples;Min_cycle;Max_cycle;Signal;HPM_P1;HPM_P2
2023/03/15 00:02:11;;;;;;;12.20;4.38;;;3.10;99.90;;;;;;5089163;28;20549;-66
2023/03/15 00:04:40;;;;;;;8.98;3.70;;;3.10;99.90;;;;;;5071337;28;20458;-66
2023/03/15 00:07:10;;;;;;;9.23;3.67;;;3.10;99.90;;;;;;5088149;28;20032;-66
2023/03/15 00:09:38;;;;;;;10.65;3.63;;;3.10;99.90;;;;;;5088215;28;20040;-67
2023/03/15 00:12:08;;;;;;;8.13;3.55;;;3.00;99.90;;;;;;5073087;28;20047;-66
2023/03/15 00:14:37;;;;;;;12.30;3.80;;;3.00;99.90;;;;;;5088628;28;20058;-66
2023/03/15 00:17:07;;;;;;;12.45;3.65;;;3.00;99.90;;;;;;5090113;28;20159;-66
2023/03/15 00:19:35;;;;;;;8.88;3.90;;;2.90;99.90;;;;;;5080018;28;20052;-67
2023/03/15 00:22:04;;;;;;;8.55;3.40;;;2.90;99.90;;;;;;5097284;28;20058;-66
2023/03/15 00:24:35;;;;;;;11.32;4.00;;;2.90;99.90;;;;;;5106489;28;20123;-67
2023/03/15 00:27:30;;;;;;;11.93;3.90;;;2.90;99.90;;;;;;5096159;28;20108;-67
2023/03/15 00:29:59;;;;;;;10.55;3.30;;;2.80;99.90;;;;;;5088755;28;20127;-66
2023/03/15 00:32:32;;;;;;;12.48;4.63;;;2.80;99.90;;;;;;5072400;28;20048;-66
2023/03/15 00:35:03;;;;;;;9.18;3.78;;;2.80;99.90;;;;;;5088480;28;20046;-66
2023/03/15 00:37:36;;;;;;;12.23;3.60;;;2.80;99.90;;;;;;5088360;28;20466;-67
2023/03/15 00:40:30;;;;;;;10.52;3.70;;;2.80;99.90;;;;;;5074689;28;20048;-67
2023/03/15 00:43:02;;;;;;;14.27;4.32;;;2.80;99.90;;;;;;5089893;28;20143;-67
2023/03/15 00:45:39;;;;;;;9.93;3.50;;;2.80;99.90;;;;;;5086420;28;20075;-67
2023/03/15 00:48:10;;;;;;;9.23;3.28;;;2.80;99.90;;;;;;5087099;28;20075;-66
2023/03/15 00:50:42;;;;;;;8.80;3.17;;;2.90;99.90;;;;;;5085520;28;20052;-67
2023/03/15 00:53:11;;;;;;;9.15;3.53;;;2.80;99.90;;;;;;5069840;28;20513;-66
2023/03/15 00:55:41;;;;;;;12.55;3.20;;;2.80;99.90;;;;;;5054413;28;20056;-66
2023/03/15 00:58:11;;;;;;;9.75;3.40;;;2.90;99.90;;;;;;5092293;28;20040;-67
2023/03/15 01:00:41;;;;;;;13.30;3.20;;;2.90;99.90;;;;;;5089056;28;20142;-66
2023/03/15 01:03:10;;;;;;;8.52;2.75;;;2.90;99.90;;;;;;5094214;28;20048;-66
2023/03/15 01:05:42;;;;;;;9.70;3.10;;;2.90;99.90;;;;;;5093291;28;20040;-65
2023/03/15 01:08:10;;;;;;;12.02;2.60;;;2.90;99.90;;;;;;5073661;28;20043;-67
2023/03/15 01:10:41;;;;;;;7.57;2.50;;;3.00;99.90;;;;;;5091838;28;20056;-68
2023/03/15 01:13:10;;;;;;;9.90;2.90;;;2.90;99.90;;;;;;5091882;28;20051;-67
2023/03/15 01:15:37;;;;;;;12.27;3.53;;;2.90;99.90;;;;;;5094712;28;20502;-66
2023/03/15 01:18:07;;;;;;;6.03;2.83;;;2.80;99.90;;;;;;5093225;28;20225;-65
2023/03/15 01:20:37;;;;;;;13.15;3.42;;;2.70;99.90;;;;;;5092134;28;20073;-66
2023/03/15 01:23:05;;;;;;;7.68;3.35;;;2.60;99.90;;;;;;5089887;28;20426;-65
2023/03/15 01:25:36;;;;;;;12.30;4.82;;;2.50;99.90;;;;;;5104745;28;20028;-66
2023/03/15 01:28:03;;;;;;;11.40;4.18;;;2.40;99.90;;;;;;5103930;28;20446;-65
2023/03/15 01:30:32;;;;;;;6.68;3.40;;;2.30;99.90;;;;;;5096713;28;20048;-67
2023/03/15 01:32:59;;;;;;;10.43;3.65;;;2.20;99.90;;;;;;5094352;28;20177;-65
2023/03/15 01:35:27;;;;;;;12.02;3.92;;;2.20;99.90;;;;;;5073576;28;20054;-66
2023/03/15 01:37:54;;;;;;;12.20;4.38;;;2.10;99.90;;;;;;5096868;28;20589;-67
2023/03/15 01:40:22;;;;;;;11.80;3.80;;;2.10;99.90;;;;;;5092247;28;20412;-66
2023/03/15 01:43:13;;;;;;;8.82;3.80;;;2.00;99.90;;;;;;5090032;28;20055;-66
2023/03/15 01:45:50;;;;;;;7.60;3.97;;;1.90;99.90;;;;;;5066835;28;20055;-66
2023/03/15 01:48:21;;;;;;;9.82;3.88;;;1.90;99.90;;;;;;5091080;28;20044;-65
2023/03/15 01:50:49;;;;;;;5.75;3.53;;;2.00;99.90;;;;;;5075489;28;20133;-66
2023/03/15 01:53:17;;;;;;;8.57;3.30;;;2.00;99.90;;;;;;5108962;28;20052;-65
2023/03/15 01:55:44;;;;;;;10.23;4.30;;;2.00;99.90;;;;;;5090392;28;20431;-65
2023/03/15 01:58:14;;;;;;;9.00;3.13;;;2.00;99.90;;;;;;5104657;28;20484;-66
2023/03/15 02:00:43;;;;;;;6.97;3.20;;;2.00;99.90;;;;;;5111463;28;20032;-65
2023/03/15 02:03:23;;;;;;;7.38;3.55;;;2.00;99.90;;;;;;5094073;28;20123;-65
2023/03/15 02:05:56;;;;;;;6.85;3.33;;;2.00;99.90;;;;;;5091370;28;20040;-65
2023/03/15 02:08:41;;;;;;;10.43;3.53;;;2.10;99.90;;;;;;5091603;28;20442;-66
2023/03/15 02:11:09;;;;;;;8.48;3.47;;;2.10;99.90;;;;;;5092547;28;20061;-65
2023/03/15 02:13:36;;;;;;;7.63;2.72;;;2.10;99.90;;;;;;5090659;28;20131;-65
2023/03/15 02:16:07;;;;;;;8.00;3.20;;;2.10;99.90;;;;;;5090147;28;20048;-66
2023/03/15 02:18:44;;;;;;;5.32;2.78;;;2.10;99.90;;;;;;5090396;28;20036;-65
2023/03/15 02:21:39;;;;;;;9.20;2.85;;;2.20;99.90;;;;;;5093178;28;20438;-65
2023/03/15 02:24:30;;;;;;;8.45;3.00;;;2.20;99.90;;;;;;5079051;28;20032;-64
2023/03/15 02:26:57;;;;;;;8.60;3.13;;;2.30;99.90;;;;;;5104590;28;20081;-66
2023/03/15 02:29:27;;;;;;;7.10;3.50;;;2.20;99.90;;;;;;5072819;28;20040;-67
2023/03/15 02:31:56;;;;;;;6.85;3.05;;;2.30;99.90;;;;;;5090505;28;20052;-66
2023/03/15 02:34:25;;;;;;;8.30;3.40;;;2.20;99.90;;;;;;5091815;28;20112;-66
2023/03/15 02:36:53;;;;;;;9.27;4.32;;;2.30;99.90;;;;;;5091544;28;20130;-66
2023/03/15 02:39:22;;;;;;;9.48;4.43;;;2.30;99.90;;;;;;5092139;28;20048;-65
2023/03/15 02:41:55;;;;;;;10.40;4.50;;;2.30;99.90;;;;;;5092581;28;20070;-66
2023/03/15 02:44:30;;;;;;;9.95;4.78;;;2.30;99.90;;;;;;5091668;28;20047;-66
2023/03/15 02:47:07;;;;;;;9.40;4.20;;;2.30;99.90;;;;;;5094819;28;20104;-66
2023/03/15 02:49:39;;;;;;;8.48;4.40;;;2.30;99.90;;;;;;5092164;28;20040;-65
2023/03/15 02:52:08;;;;;;;11.00;4.63;;;2.30;99.90;;;;;;5091579;28;20474;-66
2023/03/15 02:54:35;;;;;;;13.10;5.13;;;2.30;99.90;;;;;;5091061;28;20400;-66
2023/03/15 02:57:03;;;;;;;11.32;4.68;;;2.40;99.90;;;;;;5074065;28;20480;-65
2023/03/15 02:59:31;;;;;;;12.07;5.72;;;2.30;99.90;;;;;;5090968;28;20124;-66
2023/03/15 03:01:58;;;;;;;11.00;4.60;;;2.20;99.90;;;;;;5086426;28;20044;-66
2023/03/15 03:04:26;;;;;;;9.38;4.40;;;2.20;99.90;;;;;;5093935;28;20040;-66
2023/03/15 03:06:53;;;;;;;11.00;4.47;;;2.20;99.90;;;;;;5076305;28;20405;-66
2023/03/15 03:09:24;;;;;;;10.15;3.92;;;2.10;99.90;;;;;;5090747;28;20132;-67
2023/03/15 03:11:52;;;;;;;8.77;4.05;;;2.00;99.90;;;;;;5096733;28;20449;-67
2023/03/15 03:14:22;;;;;;;9.68;4.82;;;1.90;99.90;;;;;;5087873;28;20422;-66
2023/03/15 03:16:50;;;;;;;12.70;4.53;;;1.90;99.90;;;;;;5097252;28;20044;-66
2023/03/15 03:19:18;;;;;;;9.25;3.95;;;1.90;99.90;;;;;;5090534;28;20471;-66
2023/03/15 03:21:45;;;;;;;11.48;4.15;;;1.80;99.90;;;;;;5102391;28;20032;-65
2023/03/15 03:24:14;;;;;;;10.50;4.43;;;1.80;99.90;;;;;;5090960;28;20074;-66
2023/03/15 03:26:44;;;;;;;8.32;4.32;;;1.70;99.90;;;;;;5093829;28;20386;-66
2023/03/15 03:29:16;;;;;;;8.55;4.65;;;1.70;99.90;;;;;;5103534;28;20024;-67
2023/03/15 03:31:47;;;;;;;11.23;4.75;;;1.60;99.90;;;;;;5103493;28;20062;-67
2023/03/15 03:34:15;;;;;;;11.07;4.15;;;1.60;99.90;;;;;;5079579;28;20058;-66
2023/03/15 03:36:43;;;;;;;11.65;4.78;;;1.60;99.90;;;;;;5070195;28;20085;-66
2023/03/15 03:39:14;;;;;;;13.00;4.10;;;1.60;99.90;;;;;;5090553;28;20110;-66
2023/03/15 03:41:42;;;;;;;11.70;4.20;;;1.60;99.90;;;;;;5090190;28;20040;-65
2023/03/15 03:44:11;;;;;;;11.50;4.47;;;1.60;99.90;;;;;;5079932;28;20487;-65
2023/03/15 03:46:40;;;;;;;13.35;4.47;;;1.60;99.90;;;;;;5093502;28;20069;-66
2023/03/15 03:49:08;;;;;;;12.07;4.50;;;1.60;99.90;;;;;;5110837;28;20062;-66
2023/03/15 03:51:36;;;;;;;14.30;4.95;;;1.60;99.90;;;;;;5107502;28;20043;-66
2023/03/15 03:54:04;;;;;;;10.88;4.35;;;1.50;99.90;;;;;;5089718;28;20052;-66
2023/03/15 03:56:31;;;;;;;13.45;5.35;;;1.50;99.90;;;;;;5089839;28;20048;-65
2023/03/15 03:58:58;;;;;;;18.65;5.35;;;1.40;99.90;;;;;;5089776;28;20039;-65
2023/03/15 04:01:38;;;;;;;16.35;5.40;;;1.30;99.90;;;;;;5088515;28;20036;-65
2023/03/15 04:04:05;;;;;;;14.02;6.07;;;1.30;99.90;;;;;;5088025;28;20123;-67
2023/03/15 04:06:33;;;;;;;15.30;6.97;;;1.30;99.90;;;;;;5080884;28;20082;-67
2023/03/15 04:09:03;;;;;;;15.60;6.85;;;1.20;99.90;;;;;;5101639;28;20048;-66
2023/03/15 04:11:42;;;;;;;15.10;7.30;;;1.10;99.90;;;;;;5094175;28;20118;-67
2023/03/15 04:14:11;;;;;;;15.68;7.00;;;1.10;99.90;;;;;;5105216;28;20040;-65
2023/03/15 04:16:40;;;;;;;18.63;7.53;;;1.00;99.90;;;;;;5076587;28;20043;-66
2023/03/15 04:19:11;;;;;;;16.98;7.22;;;1.00;99.90;;;;;;5089851;28;20045;-66
2023/03/15 04:21:46;;;;;;;18.67;7.68;;;0.90;99.90;;;;;;5078508;28;20039;-69
2023/03/15 04:24:30;;;;;;;15.57;7.70;;;0.90;99.90;;;;;;5105464;28;20032;-66
2023/03/15 04:27:05;;;;;;;14.98;8.32;;;0.80;99.90;;;;;;5087986;28;20066;-66
2023/03/15 04:29:43;;;;;;;16.42;8.35;;;0.80;99.90;;;;;;5090277;28;20495;-65
2023/03/15 04:32:28;;;;;;;15.40;7.43;;;0.80;99.90;;;;;;5087863;28;20085;-66
2023/03/15 04:35:16;;;;;;;23.48;8.98;;;0.80;99.90;;;;;;5090287;28;20131;-66
2023/03/15 04:38:05;;;;;;;22.23;8.77;;;0.70;99.90;;;;;;5088805;28;20059;-66
2023/03/15 04:41:00;;;;;;;19.88;8.60;;;0.70;99.90;;;;;;5111877;28;20120;-66
2023/03/15 04:43:37;;;;;;;22.95;8.23;;;0.70;99.90;;;;;;5113036;28;20119;-66
2023/03/15 04:46:25;;;;;;;18.55;7.85;;;0.70;99.90;;;;;;5094127;28;20044;-66
2023/03/15 04:49:06;;;;;;;23.15;8.25;;;0.70;99.90;;;;;;5092389;28;20028;-65
2023/03/15 04:51:55;;;;;;;22.75;8.68;;;0.70;99.90;;;;;;5075240;28;20052;-66
2023/03/15 04:54:35;;;;;;;18.40;8.57;;;0.70;99.90;;;;;;5099013;28;20044;-67
2023/03/15 04:57:17;;;;;;;18.23;8.95;;;0.70;99.90;;;;;;5108792;28;20122;-66
2023/03/15 04:59:56;;;;;;;27.20;9.73;;;0.70;99.90;;;;;;5092238;28;20383;-66
2023/03/15 05:02:38;;;;;;;24.50;9.55;;;0.70;99.90;;;;;;5083187;28;20477;-66
2023/03/15 05:05:15;;;;;;;24.17;9.07;;;0.70;99.90;;;;;;5077420;28;20070;-66
2023/03/15 05:08:03;;;;;;;17.83;9.02;;;0.70;99.90;;;;;;5060582;28;20067;-67
2023/03/15 05:11:03;;;;;;;18.60;9.00;;;0.70;99.90;;;;;;5049494;28;20566;-66
2023/03/15 05:13:45;;;;;;;22.33;9.75;;;0.60;99.90;;;;;;5034096;28;20492;-67
2023/03/15 05:16:32;;;;;;;25.02;10.20;;;0.70;99.90;;;;;;5049005;28;20538;-66
2023/03/15 05:19:11;;;;;;;19.67;8.73;;;0.60;99.90;;;;;;5048871;28;20426;-66
2023/03/15 05:21:46;;;;;;;27.30;11.43;;;0.60;99.90;;;;;;5070579;28;20499;-66
2023/03/15 05:24:43;;;;;;;18.13;9.52;;;0.60;99.90;;;;;;5052521;28;20464;-66
2023/03/15 05:27:28;;;;;;;21.55;10.02;;;0.60;99.90;;;;;;5036397;28;20495;-67
2023/03/15 05:30:28;;;;;;;21.33;9.30;;;0.60;99.90;;;;;;4999376;28;20045;-66
2023/03/15 05:33:25;;;;;;;24.05;11.00;;;0.50;99.90;;;;;;4908564;29;20459;-66
2023/03/15 05:36:18;;;;;;;22.63;9.55;;;0.60;99.90;;;;;;4892148;29;20056;-67
2023/03/15 05:39:08;;;;;;;21.63;9.23;;;0.60;99.90;;;;;;4856593;29;20053;-66
2023/03/15 05:41:54;;;;;;;24.13;9.60;;;0.60;99.90;;;;;;4842208;29;20080;-66
2023/03/15 05:44:55;;;;;;;30.73;11.10;;;0.60;99.90;;;;;;4851955;29;20481;-65
2023/03/15 05:47:37;;;;;;;24.88;10.18;;;0.60;99.90;;;;;;5107184;27;20392;-67
2023/03/15 05:50:22;;;;;;;20.30;8.57;;;0.60;99.90;;;;;;5088734;28;20102;-67
2023/03/15 05:53:08;;;;;;;23.00;9.82;;;0.60;99.90;;;;;;5086684;28;20044;-66
2023/03/15 05:55:52;;;;;;;32.28;10.77;;;0.60;99.90;;;;;;5076945;28;20066;-66
2023/03/15 05:58:39;;;;;;;20.42;9.45;;;0.70;99.90;;;;;;5078532;28;20040;-65
2023/03/15 06:01:33;;;;;;;21.40;10.35;;;0.70;99.90;;;;;;5077015;28;20044;-73
2023/03/15 06:04:14;;;;;;;23.45;9.95;;;0.70;99.90;;;;;;5080402;28;20109;-68
2023/03/15 06:06:42;;;;;;;28.42;10.05;;;0.80;99.90;;;;;;5100758;28;20040;-66
2023/03/15 06:09:10;;;;;;;19.73;9.02;;;0.80;99.90;;;;;;5083058;28;20032;-66
2023/03/15 06:11:38;;;;;;;23.48;9.40;;;0.90;99.90;;;;;;5089798;28;20134;-67
2023/03/15 06:14:07;;;;;;;24.50;10.07;;;0.90;99.90;;;;;;5072261;28;20063;-66
2023/03/15 06:16:50;;;;;;;24.20;9.52;;;0.90;99.90;;;;;;5082295;28;20066;-67
2023/03/15 06:19:19;;;;;;;20.55;8.95;;;1.00;99.90;;;;;;5072618;28;20068;-67
2023/03/15 06:21:47;;;;;;;25.67;9.32;;;0.90;99.90;;;;;;5089438;28;20093;-66
2023/03/15 06:24:25;;;;;;;22.65;8.73;;;1.00;99.90;;;;;;5079681;28;20047;-67
2023/03/15 06:26:55;;;;;;;24.80;9.70;;;0.90;99.90;;;;;;5094935;28;20059;-65
2023/03/15 06:29:24;;;;;;;19.20;8.20;;;1.00;99.90;;;;;;5103738;28;20058;-65
2023/03/15 06:31:53;;;;;;;20.88;9.05;;;1.00;99.90;;;;;;5107188;28;20050;-66
2023/03/15 06:34:22;;;;;;;22.17;9.48;;;1.10;99.90;;;;;;5090061;28;20242;-67
2023/03/15 06:36:51;;;;;;;18.95;8.82;;;1.10;99.90;;;;;;5107590;28;20112;-67
2023/03/15 06:39:18;;;;;;;22.27;9.65;;;1.30;99.90;;;;;;5107471;28;20042;-67
2023/03/15 06:41:46;;;;;;;23.15;9.10;;;1.20;99.90;;;;;;5125514;28;20047;-68
2023/03/15 06:44:19;;;;;;;20.33;10.13;;;1.20;99.90;;;;;;5088435;28;20450;-66
2023/03/15 06:46:51;;;;;;;19.55;9.07;;;1.30;99.90;;;;;;5093271;28;20070;-67
2023/03/15 06:49:19;;;;;;;26.58;9.15;;;1.30;99.90;;;;;;5095494;28;20027;-71
2023/03/15 06:51:46;;;;;;;22.98;8.90;;;1.40;99.90;;;;;;5110167;28;20494;-67
2023/03/15 06:54:14;;;;;;;22.17;9.88;;;1.40;99.90;;;;;;5109576;28;20046;-67
2023/03/15 06:56:42;;;;;;;18.65;9.90;;;1.30;99.90;;;;;;5099922;28;20047;-66
2023/03/15 06:59:10;;;;;;;25.73;9.90;;;1.40;99.90;;;;;;5095161;28;20073;-67
2023/03/15 07:01:37;;;;;;;27.25;10.63;;;1.50;99.90;;;;;;5100086;28;20116;-68
2023/03/15 07:04:05;;;;;;;17.05;8.25;;;1.60;99.90;;;;;;5075568;28;20048;-66
2023/03/15 07:06:34;;;;;;;15.90;8.35;;;1.60;99.90;;;;;;5113326;28;20088;-73
2023/03/15 07:09:03;;;;;;;21.10;8.98;;;1.70;99.90;;;;;;5114337;28;20568;-66
2023/03/15 07:11:31;;;;;;;17.52;9.52;;;1.80;99.90;;;;;;5112268;28;20119;-73
2023/03/15 07:13:58;;;;;;;21.95;9.32;;;1.90;99.90;;;;;;5113659;28;20470;-67
2023/03/15 07:16:25;;;;;;;20.58;8.35;;;1.80;99.90;;;;;;5095712;28;20127;-66
2023/03/15 07:18:55;;;;;;;20.23;9.05;;;1.90;99.90;;;;;;5109616;28;20093;-74
2023/03/15 07:21:22;;;;;;;18.73;8.57;;;2.00;99.90;;;;;;5106940;28;20600;-66
2023/03/15 07:23:49;;;;;;;21.83;8.70;;;2.10;99.90;;;;;;5112363;28;20043;-66
2023/03/15 07:26:16;;;;;;;16.60;8.20;;;2.10;99.90;;;;;;5106323;28;20032;-67
2023/03/15 07:28:44;;;;;;;15.68;8.60;;;2.10;99.90;;;;;;5104337;28;20049;-66
2023/03/15 07:31:12;;;;;;;14.07;8.35;;;2.10;99.90;;;;;;5113669;28;20046;-66
2023/03/15 07:33:39;;;;;;;22.40;8.05;;;2.20;99.90;;;;;;5107193;28;20036;-66
2023/03/15 07:36:07;;;;;;;19.73;8.32;;;2.30;99.90;;;;;;5111072;28;20361;-69
2023/03/15 07:38:34;;;;;;;14.38;8.38;;;2.40;99.90;;;;;;5090215;28;20047;-66
2023/03/15 07:41:03;;;;;;;15.70;7.25;;;2.50;99.90;;;;;;5109289;28;20045;-66
2023/03/15 07:43:31;;;;;;;14.10;6.80;;;2.50;99.90;;;;;;5112362;28;20052;-65
2023/03/15 07:46:09;;;;;;;16.85;7.43;;;2.60;99.90;;;;;;5059328;28;20044;-67
2023/03/15 07:48:37;;;;;;;19.85;7.72;;;2.60;99.90;;;;;;5111393;28;20565;-65
2023/03/15 07:51:04;;;;;;;15.85;7.38;;;2.60;99.90;;;;;;5098366;28;20059;-65
2023/03/15 07:53:32;;;;;;;21.23;7.05;;;2.60;99.90;;;;;;5093913;28;20055;-65
2023/03/15 07:56:00;;;;;;;16.92;7.35;;;2.70;99.90;;;;;;5073463;28;20648;-67
2023/03/15 07:58:27;;;;;;;14.45;7.38;;;2.70;99.90;;;;;;5090480;28;20052;-66
2023/03/15 08:00:55;;;;;;;20.13;7.20;;;2.60;99.90;;;;;;5072529;28;20044;-66
2023/03/15 08:03:25;;;;;;;14.35;7.18;;;2.70;99.90;;;;;;5071227;28;20512;-68
2023/03/15 08:05:53;;;;;;;12.65;7.13;;;2.70;99.90;;;;;;5093944;28;20457;-66
2023/03/15 08:08:21;;;;;;;12.85;6.88;;;2.70;99.90;;;;;;5089006;28;20402;-70
2023/03/15 08:10:49;;;;;;;14.43;6.60;;;2.60;99.90;;;;;;5089055;28;20032;-66
2023/03/15 08:13:16;;;;;;;14.30;7.38;;;2.70;99.90;;;;;;5093454;28;20081;-74
2023/03/15 08:15:47;;;;;;;13.15;6.53;;;2.70;99.90;;;;;;5073893;28;20567;-65
2023/03/15 08:18:14;;;;;;;13.25;6.28;;;2.70;99.90;;;;;;5090488;28;20118;-65
2023/03/15 08:20:41;;;;;;;16.00;6.30;;;2.80;99.90;;;;;;5108452;28;20120;-66
2023/03/15 08:23:15;;;;;;;21.80;7.03;;;3.00;99.90;;;;;;5111448;28;20047;-66
2023/03/15 08:25:43;;;;;;;17.60;7.10;;;3.20;99.90;;;;;;5086058;28;20044;-67
2023/03/15 08:28:11;;;;;;;12.43;5.50;;;3.30;99.90;;;;;;5095819;28;20073;-68
2023/03/15 08:30:39;;;;;;;20.70;7.43;;;3.30;99.90;;;;;;5108412;28;20100;-70
2023/03/15 08:33:07;;;;;;;10.32;5.53;;;3.40;99.90;;;;;;5079345;28;20044;-69
2023/03/15 08:35:34;;;;;;;11.95;5.70;;;3.50;99.90;;;;;;5088107;28;20506;-70
2023/03/15 08:38:02;;;;;;;13.60;5.65;;;3.60;99.90;;;;;;5072048;28;20424;-69
2023/03/15 08:40:29;;;;;;;7.82;5.40;;;3.50;99.90;;;;;;5090196;28;21089;-70
2023/03/15 08:42:57;;;;;;;11.35;5.10;;;3.70;99.90;;;;;;5096972;28;20051;-70
2023/03/15 08:45:25;;;;;;;14.30;6.00;;;3.80;99.90;;;;;;5096962;28;20047;-67
2023/03/15 08:47:57;;;;;;;11.10;5.38;;;4.00;99.90;;;;;;5102800;28;20116;-69
2023/03/15 08:50:25;;;;;;;;;;;4.00;99.90;;;;;;5110943;28;20048;-67
2023/03/15 08:52:53;;;;;;;13.73;5.22;;;4.10;99.90;;;;;;5108998;28;19964;-68
2023/03/15 08:55:20;;;;;;;13.45;5.07;;;4.10;99.90;;;;;;5099337;28;20119;-70
2023/03/15 08:57:48;;;;;;;13.45;4.40;;;4.10;99.90;;;;;;5092093;28;20492;-69
2023/03/15 09:00:22;;;;;;;10.88;4.60;;;4.20;99.90;;;;;;5091315;28;20044;-69
2023/03/15 09:02:53;;;;;;;15.32;4.43;;;4.40;99.90;;;;;;5087744;28;20047;-69
2023/03/15 09:05:22;;;;;;;7.00;4.13;;;4.50;99.90;;;;;;5111964;28;20123;-70
2023/03/15 09:07:51;;;;;;;11.45;4.20;;;4.70;99.90;;;;;;5109103;28;20128;-69
2023/03/15 09:10:20;;;;;;;8.75;4.75;;;5.00;99.90;;;;;;5091612;28;20089;-70
2023/03/15 09:12:51;;;;;;;14.32;4.00;;;5.20;99.90;;;;;;5101547;28;20119;-70
2023/03/15 09:15:18;;;;;;;13.30;4.45;;;5.50;99.90;;;;;;5079429;28;20051;-71
2023/03/15 09:17:49;;;;;;;11.05;4.43;;;5.60;99.90;;;;;;5072902;28;20542;-69
2023/03/15 09:20:20;;;;;;;14.02;4.60;;;5.40;99.90;;;;;;5073282;28;20668;-71
2023/03/15 09:22:53;;;;;;;13.38;4.82;;;5.20;99.90;;;;;;5104758;28;20067;-69
2023/03/15 09:25:21;;;;;;;12.38;4.60;;;5.20;99.90;;;;;;5083359;28;20047;-68
2023/03/15 09:27:49;;;;;;;14.73;4.72;;;5.40;99.90;;;;;;5107850;28;20036;-67
2023/03/15 09:30:17;;;;;;;9.55;4.28;;;5.40;99.90;;;;;;5104759;28;20119;-68
2023/03/15 09:32:45;;;;;;;14.98;4.38;;;5.30;99.90;;;;;;5087989;28;20040;-62
2023/03/15 09:35:16;;;;;;;17.75;4.72;;;5.40;99.90;;;;;;5103818;28;20489;-61
2023/03/15 09:37:43;;;;;;;11.95;4.07;;;5.70;99.90;;;;;;5107828;28;20057;-63
2023/03/15 09:40:18;;;;;;;13.18;4.38;;;5.90;99.90;;;;;;5089139;28;20451;-59
2023/03/15 09:42:57;;;;;;;8.35;3.53;;;5.80;99.90;;;;;;5089819;28;20048;-62
2023/03/15 09:45:54;;;;;;;7.90;3.88;;;5.50;99.90;;;;;;5084066;28;20044;-63
2023/03/15 09:48:42;;;;;;;10.85;4.10;;;5.40;99.90;;;;;;5110460;28;20055;-62
2023/03/15 09:51:38;;;;;;;10.40;4.20;;;5.40;99.90;;;;;;5071350;28;20040;-62
2023/03/15 09:54:39;;;;;;;13.40;4.57;;;5.00;99.90;;;;;;5093570;28;20063;-62
2023/03/15 09:57:17;;;;;;;12.80;4.33;;;4.70;99.90;;;;;;5101782;28;20127;-63
2023/03/15 09:59:49;;;;;;;9.52;4.40;;;4.60;99.90;;;;;;5110025;28;20048;-62
2023/03/15 10:02:29;;;;;;;9.95;4.50;;;4.60;99.90;;;;;;5083280;28;20140;-62
2023/03/15 10:05:32;;;;;;;10.27;4.28;;;4.50;99.90;;;;;;5070815;28;20430;-63
2023/03/15 10:07:59;;;;;;;12.02;4.80;;;4.60;99.90;;;;;;5019991;28;20056;-61
2023/03/15 10:10:44;;;;;;;11.18;4.32;;;4.80;99.90;;;;;;5089889;28;20071;-63
2023/03/15 10:13:24;;;;;;;9.68;4.40;;;4.90;99.90;;;;;;5103516;28;20386;-64
2023/03/15 10:16:14;;;;;;;16.77;4.60;;;5.00;99.90;;;;;;5088546;28;20044;-60
2023/03/15 10:18:54;;;;;;;10.35;4.70;;;4.80;99.90;;;;;;5087274;28;20040;-61
2023/03/15 10:21:30;;;;;;;12.05;4.53;;;4.70;99.90;;;;;;5085184;28;20135;-64
2023/03/15 10:24:04;;;;;;;9.55;4.40;;;4.70;99.90;;;;;;5090463;28;20046;-63
2023/03/15 10:26:33;;;;;;;;;;;4.70;99.90;;;;;;5103403;28;20474;-62
2023/03/15 10:29:08;;;;;;;9.75;4.40;;;4.80;99.90;;;;;;5101624;28;19970;-69
2023/03/15 10:31:39;;;;;;;11.95;4.72;;;4.60;99.90;;;;;;5107229;28;20052;-69
2023/03/15 10:34:15;;;;;;;14.20;4.55;;;4.80;99.90;;;;;;5091756;28;20546;-68
2023/03/15 10:36:48;;;;;;;11.25;4.88;;;5.10;99.90;;;;;;5069512;28;20570;-71
2023/03/15 10:39:16;;;;;;;10.43;4.40;;;5.20;99.90;;;;;;5079458;28;20078;-67
2023/03/15 10:41:46;;;;;;;19.30;5.15;;;4.80;99.90;;;;;;5090827;28;20493;-72
2023/03/15 10:44:19;;;;;;;17.17;4.75;;;4.80;99.90;;;;;;5112740;28;20059;-68
2023/03/15 10:47:13;;;;;;;14.70;5.05;;;4.50;99.90;;;;;;5109595;28;20520;-66
2023/03/15 10:49:56;;;;;;;14.95;4.50;;;4.50;99.90;;;;;;5085927;28;20332;-72
2023/03/15 10:52:34;;;;;;;11.88;4.80;;;4.40;99.90;;;;;;5107025;28;20513;-70
2023/03/15 10:55:14;;;;;;;11.10;4.10;;;4.30;99.90;;;;;;5092245;28;20131;-71
2023/03/15 10:57:58;;;;;;;10.02;4.07;;;4.20;99.90;;;;;;5095665;28;20050;-73
2023/03/15 11:00:30;;;;;;;6.63;3.30;;;4.30;99.90;;;;;;5091689;28;20112;-65
2023/03/15 11:03:22;;;;;;;13.55;3.70;;;4.10;99.90;;;;;;5091806;28;20283;-64
2023/03/15 11:05:52;;;;;;;13.35;3.80;;;4.10;99.90;;;;;;5092048;28;20052;-64
2023/03/15 11:08:23;;;;;;;7.85;3.40;;;4.20;99.90;;;;;;5093369;28;20047;-65
2023/03/15 11:10:56;;;;;;;10.30;3.63;;;4.20;99.90;;;;;;5073807;28;20467;-68
2023/03/15 11:13:24;;;;;;;9.57;3.40;;;4.00;99.90;;;;;;5072689;28;20091;-67
2023/03/15 11:15:55;;;;;;;11.07;3.50;;;4.10;99.90;;;;;;5109596;28;20084;-70
2023/03/15 11:18:29;;;;;;;6.75;2.95;;;4.00;99.90;;;;;;5080731;28;20043;-69
2023/03/15 11:20:58;;;;;;;10.55;3.90;;;3.90;99.90;;;;;;5092892;28;20513;-69
2023/03/15 11:23:30;;;;;;;10.45;4.18;;;3.80;99.90;;;;;;5111482;28;20076;-65
2023/03/15 11:25:58;;;;;;;9.80;3.83;;;3.80;99.90;;;;;;5082819;28;20044;-62
2023/03/15 11:28:29;;;;;;;7.38;3.67;;;3.70;99.90;;;;;;5097780;28;20027;-62
2023/03/15 11:31:03;;;;;;;12.00;4.50;;;3.70;99.90;;;;;;5101534;28;20048;-62
2023/03/15 11:33:40;;;;;;;10.45;3.85;;;3.80;99.90;;;;;;5091778;28;20035;-59
2023/03/15 11:36:14;;;;;;;11.10;4.43;;;3.90;99.90;;;;;;5090990;28;20557;-60
2023/03/15 11:38:44;;;;;;;10.23;4.18;;;4.00;99.90;;;;;;5091432;28;20052;-61
2023/03/15 11:41:20;;;;;;;9.88;3.78;;;4.00;99.90;;;;;;5091318;28;20048;-62
2023/03/15 11:44:22;;;;;;;7.35;3.60;;;4.10;99.90;;;;;;5090603;28;20109;-63
2023/03/15 11:47:03;;;;;;;9.27;4.18;;;4.20;99.90;;;;;;5086581;28;20044;-61
2023/03/15 11:49:47;;;;;;;8.73;4.18;;;4.20;99.90;;;;;;5112760;28;20122;-65
2023/03/15 11:52:16;;;;;;;9.93;4.15;;;4.10;99.90;;;;;;5103475;28;20127;-64
2023/03/15 11:54:45;;;;;;;13.70;4.55;;;4.20;99.90;;;;;;5091397;28;20119;-63
2023/03/15 11:57:27;;;;;;;8.57;3.50;;;4.30;99.90;;;;;;5072568;28;20048;-61
2023/03/15 11:59:56;;;;;;;8.20;3.35;;;4.40;99.90;;;;;;5091533;28;20051;-64
2023/03/15 12:02:25;;;;;;;9.73;4.05;;;4.40;99.90;;;;;;5093065;28;20555;-62
2023/03/15 12:04:54;;;;;;;7.97;3.38;;;4.50;99.90;;;;;;5091385;28;20071;-65
2023/03/15 12:07:23;;;;;;;13.02;3.60;;;4.50;99.90;;;;;;5074360;28;20044;-65
2023/03/15 12:09:51;;;;;;;7.22;3.35;;;4.00;99.90;;;;;;5084232;28;20054;-61
2023/03/15 12:12:25;;;;;;;8.77;3.03;;;4.00;99.90;;;;;;5104272;28;20053;-61
2023/03/15 12:15:04;;;;;;;6.95;2.95;;;4.00;99.90;;;;;;5074511;28;20051;-61
2023/03/15 12:17:58;;;;;;;8.35;2.70;;;4.20;99.90;;;;;;5089711;28;20071;-62
2023/03/15 12:20:48;;;;;;;7.55;3.15;;;4.40;99.90;;;;;;5070978;28;20078;-62
2023/03/15 12:23:18;;;;;;;9.02;3.17;;;4.20;99.90;;;;;;5105549;28;20055;-64
2023/03/15 12:25:56;;;;;;;7.40;2.72;;;4.10;99.90;;;;;;5074258;28;20527;-63
2023/03/15 12:28:35;;;;;;;6.65;2.80;;;3.90;99.90;;;;;;5111629;28;20032;-63
2023/03/15 12:31:13;;;;;;;7.30;2.90;;;3.90;99.90;;;;;;5111308;28;20067;-63
2023/03/15 12:33:52;;;;;;;6.50;2.88;;;4.00;99.90;;;;;;5087892;28;20498;-63
2023/03/15 12:36:43;;;;;;;6.00;2.60;;;4.00;99.90;;;;;;5099032;28;20101;-63
2023/03/15 12:39:14;;;;;;;6.85;2.78;;;4.10;99.90;;;;;;5095505;28;20495;-63
2023/03/15 12:41:45;;;;;;;9.13;3.33;;;4.10;99.90;;;;;;5074084;28;20050;-65
2023/03/15 12:44:27;;;;;;;6.32;2.92;;;4.30;99.90;;;;;;5071505;28;20484;-63
2023/03/15 12:46:56;;;;;;;7.72;3.00;;;4.50;99.90;;;;;;5087193;28;20142;-61
2023/03/15 12:49:23;;;;;;;5.50;2.63;;;4.50;99.90;;;;;;5110861;28;20052;-64
2023/03/15 12:52:03;;;;;;;5.05;2.50;;;4.30;99.90;;;;;;5109124;28;20032;-65
2023/03/15 12:54:54;;;;;;;6.32;2.70;;;4.30;99.90;;;;;;5075329;28;20069;-63
2023/03/15 12:57:26;;;;;;;7.68;3.10;;;4.40;99.90;;;;;;5091269;28;20135;-63
2023/03/15 13:00:14;;;;;;;8.00;3.00;;;4.50;99.90;;;;;;5074078;28;20048;-63
2023/03/15 13:02:47;;;;;;;5.15;3.08;;;4.30;99.90;;;;;;5072772;28;20419;-62
2023/03/15 13:05:22;;;;;;;7.60;3.00;;;4.20;99.90;;;;;;5061139;28;20741;-63
2023/03/15 13:07:53;;;;;;;5.60;3.05;;;4.00;99.90;;;;;;5089964;28;20128;-63
2023/03/15 13:10:32;;;;;;;6.82;2.63;;;4.00;99.90;;;;;;5100636;28;20118;-63
2023/03/15 13:13:30;;;;;;;4.90;2.80;;;4.00;99.90;;;;;;5077655;28;20044;-64
2023/03/15 13:16:21;;;;;;;8.63;2.90;;;4.00;99.90;;;;;;5089899;28;20398;-65
2023/03/15 13:19:09;;;;;;;8.82;3.13;;;3.90;99.90;;;;;;5090023;28;20051;-65
2023/03/15 13:21:51;;;;;;;6.80;2.45;;;4.00;99.90;;;;;;5061843;28;20134;-63
2023/03/15 13:24:57;;;;;;;6.70;2.85;;;4.10;99.90;;;;;;5109937;28;20048;-65
2023/03/15 13:27:42;;;;;;;6.10;2.58;;;4.20;99.90;;;;;;5093149;28;20079;-63